KMDW

Chicago Midway International Airport

Chicago, Illinois, USA
KMDW 191136Z 1912/2018 07008KT 5SM BR VCSH BKN005 OVC012 FM191500 09007KT P6SM SCT009 BKN015 TEMPO 1915/1918 BKN009 FM191900 03010KT 6SM -SHRA VCTS SCT015 BKN035CB TEMPO 1920/1924 2SM TSRA BKN015 OVC035CB FM200000 03009KT P6SM BKN020 FM200600 03006KT 5SM BR SCT007 BKN015 FM201400 05008KT P6SM SCT020 BKN035
Issued Valid From Valid To
Jun-19 @ 11:36 UTC
(56 minutes ago)
Jun-19 @ 12:00 UTC
(32 minutes ago)
Jun-20 @ 18:00 UTC
(-1 days ago)
Jun-19 @ 12:00 to Jun-19 @ 15:00
KMDW 191136Z 1912/2018 07008KT 5SM BR VCSH BKN005 OVC012
Wind Visibility Clouds Conditions
70° at 8 knots 5 miles
  • Broken at 500' AGL
  • Overcast at 1,200' AGL
  • Mist
Temporary Jun-19 @ 15:00 to Jun-19 @ 18:00
TEMPO 1915/1918 BKN009
Clouds
  • Broken at 900' AGL
From Jun-19 @ 15:00 to Jun-19 @ 19:00
FM191500 09007KT P6SM SCT009 BKN015
Wind Visibility Clouds
90° at 7 knots Greater than 6 miles
  • Scattered at 900' AGL
  • Broken at 1,500' AGL
From Jun-19 @ 19:00 to Jun-20 @ 00:00
FM191900 03010KT 6SM -SHRA VCTS SCT015 BKN035CB
Wind Visibility Clouds Conditions
30° at 10 knots 6 miles
  • Scattered at 1,500' AGL
  • Broken at 3,500' AGL
  • Light Rain
  • Area Thunderstorm
Temporary Jun-19 @ 20:00 to Jun-20 @ 00:00
TEMPO 1920/1924 2SM TSRA BKN015 OVC035CB
Visibility Clouds Conditions
2 miles
  • Broken at 1,500' AGL
  • Overcast at 3,500' AGL
  • Thunderstorm
  • Rain
From Jun-20 @ 00:00 to Jun-20 @ 06:00
FM200000 03009KT P6SM BKN020
Wind Visibility Clouds
30° at 9 knots Greater than 6 miles
  • Broken at 2,000' AGL
From Jun-20 @ 06:00 to Jun-20 @ 14:00
FM200600 03006KT 5SM BR SCT007 BKN015
Wind Visibility Clouds Conditions
30° at 6 knots 5 miles
  • Scattered at 700' AGL
  • Broken at 1,500' AGL
  • Mist
From Jun-20 @ 14:00 to Jun-20 @ 18:00
FM201400 05008KT P6SM SCT020 BKN035
Wind Visibility Clouds
50° at 8 knots Greater than 6 miles
  • Scattered at 2,000' AGL
  • Broken at 3,500' AGL
KMDW 191136Z 1912/2018 07008KT 5SM BR VCSH BKN005 OVC012 FM191500 09007KT P6SM SCT009 BKN015 TEMPO 1915/1918 BKN009 FM191900 03010KT 6SM -SHRA VCTS SCT015 BKN035CB TEMPO 1920/1924 2SM TSRA BKN015 OVC035CB FM200000 03009KT P6SM BKN020 FM200600 03006KT 5SM BR SCT007 BKN015 FM201400 05008KT P6SM SCT020 BKN035
Issued Jun-19 @ 11:36 UTC
(56 minutes ago)
Valid From Jun-19 @ 12:00 UTC
(32 minutes ago)
Valid To Jun-20 @ 18:00 UTC
(-1 days ago)
Jun-19 @ 12:00 - Jun-19 @ 15:00
Wind Visibility
70° at 8 knots 5 miles
Clouds
  • Broken at 500' AGL
  • Overcast at 1,200' AGL
Conditions
  • Mist
Temporary Jun-19 @ 15:00 - Jun-19 @ 18:00
Clouds
  • Broken at 900' AGL
From Jun-19 @ 15:00 - Jun-19 @ 19:00
Wind Visibility
90° at 7 knots Greater than 6 miles
Clouds
  • Scattered at 900' AGL
  • Broken at 1,500' AGL
From Jun-19 @ 19:00 - Jun-20 @ 00:00
Wind Visibility
30° at 10 knots 6 miles
Clouds
  • Scattered at 1,500' AGL
  • Broken at 3,500' AGL
Conditions
  • Light Rain
  • Area Thunderstorm
Temporary Jun-19 @ 20:00 - Jun-20 @ 00:00
Clouds
  • Broken at 1,500' AGL
  • Overcast at 3,500' AGL
Conditions
  • Thunderstorm
  • Rain
From Jun-20 @ 00:00 - Jun-20 @ 06:00
Wind Visibility
30° at 9 knots Greater than 6 miles
Clouds
  • Broken at 2,000' AGL
From Jun-20 @ 06:00 - Jun-20 @ 14:00
Wind Visibility
30° at 6 knots 5 miles
Clouds
  • Scattered at 700' AGL
  • Broken at 1,500' AGL
Conditions
  • Mist
From Jun-20 @ 14:00 - Jun-20 @ 18:00
Wind Visibility
50° at 8 knots Greater than 6 miles
Clouds
  • Scattered at 2,000' AGL
  • Broken at 3,500' AGL